Dunbarton, NH (03046)

10:10 PM EST on November 20, 2014 (GMT -0500)
Dunbarton Center | Change Station
CLOSE
Current Station
Personal Weather Station
Location: Dunbarton, NH
Elevation: 692 ft
Nearby Weather Stations

Elev 692 ft 43.10 °N, 71.60 °W | Updated 0 second ago

Partly Cloudy
Partly Cloudy
25.7 °F
Feels Like 26 °F
N
3.0
Wind Variable Wind from NW
Gusts 4.0 mph

Today
High -- | Low -- °F
--% Chance of Precip.
Yesterday
High -- | Low -- °F
Precip. -- in
6:45 AM 4:18 PM
Waning Crescent, 2% visible
Pressure 29.89 in
Visibility 10.0 miles
Clouds Clear
Windchill 26 °F
Dew Point 13 °F
Humidity 57%
Rainfall 0.00 in
Snow Depth Not available.
UV 0 out of 12
Pollen .10 out of 12
Air Quality Not available.
Flu Activity Not available.
METAR KCON 210251Z AUTO 29004KT 10SM CLR M03/M12 A2988 RMK AO2 SLP121 T10281122 52009

More Conditions Fewer Conditions

Pressure 29.89 in
Visibility 10.0 miles
Clouds Clear
Windchill 26 °F
Dew Point 13 °F
Humidity 57%
Rainfall 0.00 in
Snow Depth Not available.
UV 0 out of 12
Pollen .10 out of 12
Air Quality Not available.
Flu Activity Not available.
METAR KCON 210251Z AUTO 29004KT 10SM CLR M03/M12 A2988 RMK AO2 SLP121 T10281122 52009

More Conditions Fewer Conditions

10-Day Weather Forecast

Almanac

Astronomy

Nov. 20, 2014 Rise Set
Actual Time
Civil Twilight
Nautical Twilight
Astronomical Twilight
Moon
Length of Visible Light
Length of Day
Tomorrow will be .
, % of the Moon is Illuminated

Today's Extremes

State Highs State Lows

Community

WunderPhotos

Upload Photos

1,772,610 photos uploaded!

WunderBlogs® & News

Nearby

Air Quality

  Air Quality AQ Index Pollutant
Not available.

Snow Depth

Station Depth Elevation

Earthquake Activity

City Distance Mag. Time & Date
Minimum magnitude displayed is 2.5.

Coastal Water Temperatures

Place Temperature

Nearby Weather Stations